Duane, Kentucky
Current Conditions -  °F | °C
As of 9:53 AM on Sunday 21 Dec 2014 (Local Time) from KJKL Reporting Station
Clear Clear  
Wind Chill: 30°   Ceiling: Unl
Heat Index: 30°   Visibility: 8mi
Dew Point: 25°   Wind: 3mph
Humidity: 82%   Direction: NA
Pressure: 30.27"   Gusts: NA
Location:  37.3318°N, 83.1697°W
Report Text: KJKL 211453Z AUTO VRB03KT 8SM CLR M01/M04 A3027 RMK AO2 SLP264 I3000 T10111039 51004
Loading
Personal Weather Stations






























Interactive Weather Map New forecast layout! Learn more

10-Day Weather Forecast

Advertisements
Track Severe Weather on mobile